首页
METAR-TAF:

METAR-TAF

机场 :

里米尼, 意大利

纬度: 44-02N, 经度: 012-37E, 海拔: 12米

当前天气观测

该预报发布于27分钟前的11:50 UTC
风速13节,风向西
温度 8°C
湿度 57%
气压 1015 hPa
能见度10公里或以上
1500米以下无云,无积雨云

METAR: LIPR 111150Z 28013KT CAVOK 08/00 Q1015

时间: 13:17 (12:17 UTC)

预报

该预报发布于1小时和17分钟前的11:00 UTC
预报有效从11日的 12点(UTC)到 11日的 21点(UTC)
风速14节,风向西转西北
能见度10公里或以上
少量云层高于4000英尺

TAF: LIPR 111100Z 1112/1121 30014KT 9999 FEW040

超过4000个机场的气象观测和天气预报(METAR&TAF报告)。

可查询的气象台以黄色和红色小点在地图上表示。

将鼠标移到小点上方,可查看气象台名称。

然后点击查看天气观测和预报。

如需切换地图:点击带黑十字的绿色按钮放大地图;点击带横线的绿色按钮缩小地图;或者点击绿色箭头查看邻近地区的地图。


METAR-TAF: